Time;durP1;ratioP1;P1;durP2;ratioP2;P2;SDS_P1;SDS_P2;PMS_P1;PMS_P2;Temp;Humidity;BMP_temperature;BMP_pressure;BME280_temperature;BME280_humidity;BME280_pressure;Samples;Min_cycle;Max_cycle;Signal;HPM_P1;HPM_P2
2023/07/23 00:02:23;;;;;;;3.77;2.43;;;20.60;85.10;;;;;;5028558;28;20227;-64
2023/07/23 00:04:49;;;;;;;6.17;2.50;;;20.60;85.70;;;;;;5028396;28;20883;-64
2023/07/23 00:07:15;;;;;;;4.07;2.80;;;20.60;84.40;;;;;;5028461;28;20184;-63
2023/07/23 00:09:40;;;;;;;4.50;2.27;;;20.60;84.50;;;;;;5029376;28;20239;-64
2023/07/23 00:12:06;;;;;;;3.63;2.23;;;20.70;85.40;;;;;;5032450;28;20192;-63
2023/07/23 00:14:31;;;;;;;5.77;2.57;;;20.60;85.10;;;;;;5032717;28;20212;-64
2023/07/23 00:16:57;;;;;;;3.20;2.40;;;20.50;84.70;;;;;;5032539;28;20186;-63
2023/07/23 00:19:23;;;;;;;2.50;2.07;;;20.50;85.50;;;;;;5032241;28;20766;-64
2023/07/23 00:21:49;;;;;;;7.97;2.27;;;20.40;87.10;;;;;;5032313;28;20287;-64
2023/07/23 00:24:21;;;;;;;5.17;2.60;;;20.50;85.40;;;;;;5032294;28;20422;-64
2023/07/23 00:26:46;;;;;;;2.87;2.40;;;20.50;85.90;;;;;;5032220;28;20502;-64
2023/07/23 00:29:12;;;;;;;3.07;2.07;;;20.60;85.00;;;;;;5032044;28;20482;-63
2023/07/23 00:31:38;;;;;;;2.40;2.20;;;20.60;86.20;;;;;;5032184;28;20180;-64
2023/07/23 00:34:05;;;;;;;3.23;1.90;;;20.60;85.70;;;;;;5032031;28;20271;-63
2023/07/23 00:36:31;;;;;;;3.17;2.27;;;20.70;85.20;;;;;;5032065;28;20195;-63
2023/07/23 00:38:57;;;;;;;3.17;2.43;;;20.70;85.30;;;;;;5032076;28;20466;-63
2023/07/23 00:41:22;;;;;;;3.07;2.23;;;20.60;85.60;;;;;;5031968;28;20262;-64
2023/07/23 00:43:48;;;;;;;2.80;2.47;;;20.40;87.10;;;;;;5031984;28;20570;-64
2023/07/23 00:46:13;;;;;;;3.87;2.10;;;20.40;87.40;;;;;;5031829;28;20234;-64
2023/07/23 00:48:39;;;;;;;5.30;2.80;;;20.40;87.10;;;;;;5031590;28;20212;-64
2023/07/23 00:51:05;;;;;;;2.23;1.97;;;20.40;86.60;;;;;;5031730;28;20220;-64
2023/07/23 00:53:31;;;;;;;4.03;2.30;;;20.50;86.70;;;;;;5032110;28;20180;-63
2023/07/23 00:55:59;;;;;;;2.50;1.90;;;20.60;86.60;;;;;;5031508;28;20195;-64
2023/07/23 00:58:24;;;;;;;3.50;2.33;;;20.50;87.70;;;;;;5031819;28;20865;-63
2023/07/23 01:00:50;;;;;;;2.37;2.17;;;20.40;87.70;;;;;;5031636;28;20467;-63
2023/07/23 01:03:16;;;;;;;2.23;2.03;;;20.30;88.20;;;;;;5031693;28;20257;-63
2023/07/23 01:05:45;;;;;;;2.60;2.40;;;20.10;90.00;;;;;;5031718;28;20514;-64
2023/07/23 01:08:11;;;;;;;3.30;2.33;;;20.10;89.10;;;;;;5031580;28;20205;-63
2023/07/23 01:10:37;;;;;;;2.83;2.13;;;20.20;88.30;;;;;;5031437;28;20925;-63
2023/07/23 01:13:04;;;;;;;2.70;2.50;;;20.10;88.90;;;;;;5031795;28;20422;-63
2023/07/23 01:15:31;;;;;;;3.00;2.00;;;20.10;89.20;;;;;;5032058;28;20813;-63
2023/07/23 01:17:59;;;;;;;3.30;2.10;;;20.10;88.50;;;;;;5032198;28;20419;-64
2023/07/23 01:20:24;;;;;;;2.60;2.30;;;20.20;89.20;;;;;;5031540;28;20908;-64
2023/07/23 01:22:50;;;;;;;3.60;2.50;;;20.10;89.20;;;;;;5031207;28;20419;-64
2023/07/23 01:25:15;;;;;;;3.70;2.07;;;20.10;89.40;;;;;;5032163;28;20619;-63
2023/07/23 01:27:41;;;;;;;6.30;2.20;;;20.20;89.80;;;;;;5031888;28;20185;-63
2023/07/23 01:30:10;;;;;;;4.33;1.90;;;20.30;88.80;;;;;;5031862;28;20209;-63
2023/07/23 01:32:37;;;;;;;2.73;1.90;;;20.40;88.10;;;;;;5031294;28;20235;-63
2023/07/23 01:35:11;;;;;;;2.97;2.00;;;20.50;87.10;;;;;;5031361;28;20522;-64
2023/07/23 01:37:37;;;;;;;8.50;2.50;;;20.60;86.90;;;;;;5031160;28;20422;-64
2023/07/23 01:40:02;;;;;;;3.60;1.97;;;20.50;88.10;;;;;;5030955;28;20873;-64
2023/07/23 01:42:31;;;;;;;1.97;1.87;;;20.30;88.60;;;;;;5031043;28;20185;-64
2023/07/23 01:45:01;;;;;;;2.33;2.00;;;20.20;88.50;;;;;;5031056;28;20247;-63
2023/07/23 01:47:26;;;;;;;3.30;2.27;;;20.10;88.50;;;;;;5031176;28;21268;-64
2023/07/23 01:49:52;;;;;;;2.43;2.00;;;20.20;89.00;;;;;;5030438;28;20467;-64
2023/07/23 01:52:18;;;;;;;4.17;2.90;;;20.10;88.70;;;;;;5030614;28;20658;-64
2023/07/23 01:54:43;;;;;;;5.20;2.90;;;20.00;89.10;;;;;;5030855;28;20195;-63
2023/07/23 01:57:09;;;;;;;2.70;1.80;;;20.00;89.40;;;;;;5030537;28;20201;-63
2023/07/23 01:59:34;;;;;;;2.13;1.80;;;20.10;89.70;;;;;;5030398;28;20200;-63
2023/07/23 02:02:00;;;;;;;2.60;2.03;;;20.10;88.60;;;;;;5030490;28;20196;-63
2023/07/23 02:04:42;;;;;;;11.50;2.33;;;20.10;89.00;;;;;;5030441;28;20601;-63
2023/07/23 02:07:08;;;;;;;4.43;2.50;;;20.20;88.80;;;;;;5028984;28;20188;-64
2023/07/23 02:09:33;;;;;;;2.03;1.83;;;20.10;89.10;;;;;;5030222;28;20482;-63
2023/07/23 02:11:59;;;;;;;2.27;1.83;;;20.00;88.60;;;;;;5030261;28;20291;-64
2023/07/23 02:14:24;;;;;;;3.60;2.30;;;19.80;88.90;;;;;;5030210;28;20285;-63
2023/07/23 02:16:50;;;;;;;2.83;2.37;;;19.80;89.20;;;;;;5030471;28;20689;-64
2023/07/23 02:19:15;;;;;;;4.07;1.80;;;19.60;83.70;;;;;;5030036;28;20205;-64
2023/07/23 02:21:41;;;;;;;2.63;2.00;;;19.70;84.00;;;;;;5030009;28;20564;-64
2023/07/23 02:24:07;;;;;;;2.50;1.97;;;19.70;83.80;;;;;;5030017;28;20196;-64
2023/07/23 02:26:32;;;;;;;2.33;2.13;;;19.70;84.00;;;;;;5029826;28;20669;-64
2023/07/23 02:28:58;;;;;;;3.60;1.90;;;19.70;84.80;;;;;;5029694;28;20223;-63
2023/07/23 02:31:23;;;;;;;6.43;2.83;;;19.70;84.10;;;;;;5029773;28;20209;-64
2023/07/23 02:33:49;;;;;;;3.10;2.17;;;19.70;83.60;;;;;;5029409;28;20274;-64
2023/07/23 02:36:14;;;;;;;2.90;2.00;;;19.80;83.80;;;;;;5029753;28;20303;-64
2023/07/23 02:38:40;;;;;;;3.10;2.63;;;19.70;84.30;;;;;;5030136;28;20550;-63
2023/07/23 02:41:07;;;;;;;3.23;2.40;;;19.60;86.80;;;;;;5029670;28;20201;-64
2023/07/23 02:43:32;;;;;;;3.27;2.40;;;19.50;85.20;;;;;;5029622;28;20189;-63
2023/07/23 02:45:58;;;;;;;5.30;2.03;;;19.40;85.80;;;;;;5029829;28;20438;-64
2023/07/23 02:48:24;;;;;;;4.00;2.20;;;19.50;85.80;;;;;;5030035;28;20319;-64
2023/07/23 02:50:52;;;;;;;2.13;1.93;;;19.40;85.70;;;;;;5030072;28;20691;-63
2023/07/23 02:53:18;;;;;;;4.27;2.50;;;19.30;85.10;;;;;;5030280;28;20303;-63
2023/07/23 02:55:44;;;;;;;3.40;2.40;;;19.30;85.30;;;;;;5029988;28;21368;-64
2023/07/23 02:58:10;;;;;;;3.60;2.30;;;19.20;85.30;;;;;;5029597;28;20429;-64
2023/07/23 03:00:39;;;;;;;2.80;2.27;;;19.10;85.70;;;;;;5029260;28;20443;-64
2023/07/23 03:03:06;;;;;;;3.17;2.57;;;19.20;86.10;;;;;;5029291;28;20633;-64
2023/07/23 03:05:33;;;;;;;3.60;2.70;;;19.10;86.50;;;;;;5027925;28;20469;-64
2023/07/23 03:07:58;;;;;;;2.43;2.00;;;19.10;86.70;;;;;;5029231;28;20466;-64
2023/07/23 03:10:24;;;;;;;4.40;2.30;;;19.10;87.30;;;;;;5028971;28;20439;-63
2023/07/23 03:12:49;;;;;;;2.57;2.10;;;19.00;87.70;;;;;;5029007;28;20208;-64
2023/07/23 03:15:15;;;;;;;5.80;2.63;;;18.90;88.70;;;;;;5028989;28;20188;-64
2023/07/23 03:17:40;;;;;;;2.00;1.80;;;18.90;88.50;;;;;;5028915;28;20185;-63
2023/07/23 03:20:08;;;;;;;5.60;2.30;;;19.00;89.10;;;;;;5028737;28;20235;-63
2023/07/23 03:22:34;;;;;;;3.70;2.27;;;18.90;89.20;;;;;;5028873;28;20630;-63
2023/07/23 03:24:59;;;;;;;5.23;2.60;;;19.10;88.50;;;;;;5028926;28;20516;-64
2023/07/23 03:27:25;;;;;;;3.20;2.67;;;19.20;88.30;;;;;;5028753;28;20188;-64
2023/07/23 03:29:50;;;;;;;2.37;1.97;;;19.10;87.70;;;;;;5028616;28;20262;-63
2023/07/23 03:32:16;;;;;;;4.30;2.57;;;19.10;88.30;;;;;;5028752;28;20564;-64
2023/07/23 03:34:41;;;;;;;3.20;2.60;;;19.20;88.30;;;;;;5029059;28;20342;-63
2023/07/23 03:37:07;;;;;;;2.23;2.03;;;19.10;88.40;;;;;;5028932;28;20183;-63
2023/07/23 03:39:33;;;;;;;3.20;2.40;;;19.10;88.10;;;;;;5028568;28;20215;-64
2023/07/23 03:41:58;;;;;;;2.17;1.97;;;19.10;88.40;;;;;;5028769;28;20189;-64
2023/07/23 03:44:24;;;;;;;2.67;2.10;;;19.10;89.10;;;;;;5028020;28;20677;-63
2023/07/23 03:47:13;;;;;;;4.40;2.20;;;19.20;88.30;;;;;;5028561;28;20192;-64
2023/07/23 03:49:38;;;;;;;2.60;2.23;;;19.00;88.90;;;;;;5028176;28;20232;-64
2023/07/23 03:52:05;;;;;;;2.37;1.87;;;18.90;90.00;;;;;;5028516;28;20426;-63
2023/07/23 03:54:31;;;;;;;3.50;2.83;;;18.90;90.00;;;;;;5028591;28;20189;-63
2023/07/23 03:56:56;;;;;;;3.50;2.47;;;18.90;90.60;;;;;;5028445;28;20419;-63
2023/07/23 03:59:26;;;;;;;2.97;2.17;;;18.80;90.70;;;;;;5028339;28;20442;-63
2023/07/23 04:01:52;;;;;;;5.10;2.50;;;18.70;90.70;;;;;;5028356;28;20176;-63
2023/07/23 04:04:17;;;;;;;3.23;2.33;;;18.70;90.80;;;;;;5028340;28;20827;-63
2023/07/23 04:06:43;;;;;;;3.03;2.20;;;18.70;91.00;;;;;;5028331;28;20266;-64
2023/07/23 04:09:08;;;;;;;2.50;1.87;;;18.70;91.30;;;;;;5028112;28;20725;-63
2023/07/23 04:11:34;;;;;;;3.37;2.63;;;18.70;91.90;;;;;;5028389;28;20185;-63
2023/07/23 04:13:59;;;;;;;15.47;2.17;;;18.60;92.30;;;;;;5028374;28;20766;-64
2023/07/23 04:16:25;;;;;;;2.70;2.20;;;18.70;92.30;;;;;;5028360;28;20645;-63
2023/07/23 04:18:51;;;;;;;3.63;2.53;;;18.70;92.30;;;;;;5028235;28;20176;-63
2023/07/23 04:21:18;;;;;;;2.60;2.07;;;18.80;91.80;;;;;;5028270;28;20211;-63
2023/07/23 04:23:50;;;;;;;3.97;2.60;;;18.80;91.70;;;;;;5028305;28;20788;-63
2023/07/23 04:26:17;;;;;;;2.63;1.90;;;18.90;91.90;;;;;;5028235;28;20506;-63
2023/07/23 04:28:44;;;;;;;2.70;2.10;;;18.90;91.90;;;;;;5028136;28;20486;-63
2023/07/23 04:31:10;;;;;;;7.20;2.63;;;18.90;92.00;;;;;;5028099;28;20526;-64
2023/07/23 04:33:36;;;;;;;2.70;2.20;;;18.90;91.80;;;;;;5028105;28;20420;-63
2023/07/23 04:36:07;;;;;;;3.97;1.93;;;18.80;92.50;;;;;;5028068;28;20414;-64
2023/07/23 04:38:34;;;;;;;3.03;2.47;;;18.90;92.60;;;;;;5027705;28;20406;-63
2023/07/23 04:41:00;;;;;;;6.47;2.20;;;18.80;92.80;;;;;;5028090;28;20457;-63
2023/07/23 04:43:25;;;;;;;4.90;3.00;;;18.90;92.70;;;;;;5028412;28;20414;-64
2023/07/23 04:45:51;;;;;;;7.63;2.27;;;19.00;92.90;;;;;;5028053;28;20375;-64
2023/07/23 04:48:16;;;;;;;2.23;1.90;;;19.10;92.30;;;;;;5028130;28;20891;-64
2023/07/23 04:50:43;;;;;;;2.90;2.10;;;19.20;92.30;;;;;;5027901;28;20582;-64
2023/07/23 04:53:09;;;;;;;2.63;2.20;;;19.10;92.20;;;;;;5027946;28;20197;-64
2023/07/23 04:55:34;;;;;;;2.50;2.17;;;19.20;92.60;;;;;;5028961;28;20522;-64
2023/07/23 04:58:00;;;;;;;3.43;2.10;;;19.20;92.50;;;;;;5031659;28;20514;-63
2023/07/23 05:00:26;;;;;;;3.47;2.30;;;19.30;92.60;;;;;;5030203;28;20700;-63
2023/07/23 05:02:52;;;;;;;4.00;2.00;;;19.40;92.60;;;;;;5031520;28;20191;-64
2023/07/23 05:05:18;;;;;;;2.87;2.40;;;19.50;93.20;;;;;;5031594;28;20422;-64
2023/07/23 05:07:43;;;;;;;3.30;2.20;;;19.60;92.90;;;;;;5031363;28;20234;-63
2023/07/23 05:10:09;;;;;;;5.10;2.10;;;19.60;92.90;;;;;;5031393;28;20315;-64
2023/07/23 05:12:35;;;;;;;4.90;2.17;;;19.70;93.30;;;;;;5031358;28;20962;-64
2023/07/23 05:15:12;;;;;;;3.13;1.70;;;19.80;93.80;;;;;;5031329;28;20489;-64
2023/07/23 05:17:39;;;;;;;2.23;2.03;;;19.90;92.60;;;;;;5031395;28;20192;-64
2023/07/23 05:20:06;;;;;;;3.17;2.17;;;20.00;91.90;;;;;;5031066;28;20457;-64
2023/07/23 05:22:33;;;;;;;3.53;2.20;;;20.10;90.70;;;;;;5030992;28;20434;-64
2023/07/23 05:24:58;;;;;;;2.23;2.00;;;20.10;91.60;;;;;;5031164;28;20427;-64
2023/07/23 05:27:26;;;;;;;4.40;2.30;;;20.20;92.00;;;;;;5031281;28;20431;-64
2023/07/23 05:29:51;;;;;;;2.70;2.33;;;20.30;92.60;;;;;;5030728;28;20683;-64
2023/07/23 05:32:17;;;;;;;5.07;2.20;;;20.50;90.00;;;;;;5030970;28;20419;-64
2023/07/23 05:34:43;;;;;;;1.90;1.80;;;20.50;86.70;;;;;;5030930;28;20246;-64
2023/07/23 05:37:08;;;;;;;3.50;2.10;;;20.70;88.00;;;;;;5030908;28;20192;-63
2023/07/23 05:39:34;;;;;;;2.43;1.80;;;20.80;87.90;;;;;;5030738;28;20638;-63
2023/07/23 05:41:59;;;;;;;2.23;2.03;;;21.00;87.50;;;;;;5030840;28;20189;-63
2023/07/23 05:44:25;;;;;;;2.70;2.30;;;21.10;87.90;;;;;;5030907;28;20184;-63
2023/07/23 05:46:51;;;;;;;2.17;1.97;;;21.20;87.30;;;;;;5031238;28;20187;-66
2023/07/23 05:49:16;;;;;;;2.60;1.97;;;21.30;85.80;;;;;;5030593;28;20220;-66
2023/07/23 05:51:42;;;;;;;2.83;2.10;;;21.30;87.50;;;;;;5030780;28;20660;-67
2023/07/23 05:54:08;;;;;;;5.73;2.23;;;21.40;84.00;;;;;;5030712;28;20194;-67
2023/07/23 05:56:33;;;;;;;4.10;2.30;;;21.40;83.30;;;;;;5030754;28;20181;-66
2023/07/23 05:58:59;;;;;;;2.17;1.97;;;21.50;85.30;;;;;;5030616;28;20738;-67
2023/07/23 06:01:25;;;;;;;2.53;2.33;;;21.50;87.80;;;;;;5030484;28;20197;-67
2023/07/23 06:03:50;;;;;;;3.40;1.93;;;21.60;84.00;;;;;;5030621;28;20785;-67
2023/07/23 06:06:16;;;;;;;3.40;2.37;;;21.90;83.60;;;;;;5030512;28;20240;-67
2023/07/23 06:08:42;;;;;;;2.07;1.63;;;21.90;86.10;;;;;;5029710;28;20290;-67
2023/07/23 06:11:07;;;;;;;2.97;1.80;;;22.00;85.70;;;;;;5030397;28;20255;-66
2023/07/23 06:13:33;;;;;;;2.67;2.47;;;22.10;85.00;;;;;;5030322;28;20180;-67
2023/07/23 06:15:59;;;;;;;4.00;2.93;;;22.20;85.10;;;;;;5030196;28;20195;-66
2023/07/23 06:18:24;;;;;;;3.60;1.93;;;22.30;81.50;;;;;;5030189;28;20192;-67
2023/07/23 06:20:50;;;;;;;7.07;2.20;;;22.40;81.40;;;;;;5030182;28;20310;-66
2023/07/23 06:23:15;;;;;;;2.27;2.00;;;22.70;82.40;;;;;;5028759;28;20194;-66
2023/07/23 06:25:41;;;;;;;3.27;2.27;;;22.90;83.70;;;;;;5028828;28;20270;-66
2023/07/23 06:28:06;;;;;;;2.87;2.10;;;23.10;83.50;;;;;;5029933;28;20222;-67
2023/07/23 06:30:33;;;;;;;2.37;2.17;;;23.10;87.80;;;;;;5028348;28;20916;-66
2023/07/23 06:32:59;;;;;;;3.20;2.37;;;23.10;81.20;;;;;;5029958;28;20207;-67
2023/07/23 06:35:24;;;;;;;2.77;1.90;;;23.10;83.40;;;;;;5030125;28;20423;-66
2023/07/23 06:37:50;;;;;;;2.57;2.10;;;23.10;82.00;;;;;;5030069;28;20422;-67
2023/07/23 06:40:16;;;;;;;3.47;1.90;;;23.10;82.00;;;;;;5030009;28;20207;-66
2023/07/23 06:42:41;;;;;;;5.43;2.23;;;23.10;82.80;;;;;;5030102;28;20193;-66
2023/07/23 06:45:08;;;;;;;3.00;1.87;;;23.10;81.10;;;;;;5029977;28;20244;-66
2023/07/23 06:47:34;;;;;;;2.33;2.03;;;23.20;82.00;;;;;;5030256;28;20236;-67
2023/07/23 06:50:00;;;;;;;3.37;2.37;;;23.20;80.50;;;;;;5030145;28;20482;-66
2023/07/23 06:52:26;;;;;;;3.53;2.57;;;23.10;79.60;;;;;;5030325;28;20191;-66
2023/07/23 06:54:52;;;;;;;5.60;2.23;;;23.00;81.20;;;;;;5030311;28;20179;-67
2023/07/23 06:57:17;;;;;;;2.83;2.53;;;23.00;83.40;;;;;;5030264;28;20436;-66
2023/07/23 06:59:45;;;;;;;3.33;2.07;;;23.00;80.80;;;;;;5030002;28;20211;-67
2023/07/23 07:02:11;;;;;;;3.60;1.80;;;22.90;79.90;;;;;;5029047;28;20202;-67
2023/07/23 07:04:37;;;;;;;3.63;2.43;;;22.80;80.20;;;;;;5030207;28;20430;-67
2023/07/23 07:07:03;;;;;;;3.70;2.03;;;22.80;79.00;;;;;;5030062;28;20273;-67
2023/07/23 07:09:29;;;;;;;2.27;2.07;;;22.80;83.20;;;;;;5029964;28;20473;-67
2023/07/23 07:11:55;;;;;;;5.37;2.60;;;22.90;83.40;;;;;;5029994;28;20422;-67
2023/07/23 07:14:21;;;;;;;2.50;2.27;;;22.90;80.70;;;;;;5029952;28;20182;-66
2023/07/23 07:16:47;;;;;;;2.70;2.50;;;22.90;83.10;;;;;;5029999;28;20947;-66
2023/07/23 07:19:13;;;;;;;2.53;2.30;;;23.00;84.10;;;;;;5029820;28;20226;-67
2023/07/23 07:21:38;;;;;;;3.47;2.47;;;23.10;81.60;;;;;;5029857;28;20234;-67
2023/07/23 07:24:04;;;;;;;2.80;2.30;;;23.10;82.70;;;;;;5029844;28;20439;-67
2023/07/23 07:26:30;;;;;;;4.13;2.67;;;23.10;80.90;;;;;;5029866;28;20191;-67
2023/07/23 07:28:56;;;;;;;3.30;2.70;;;23.20;81.70;;;;;;5029688;28;20487;-67
2023/07/23 07:31:21;;;;;;;2.93;2.63;;;23.30;81.10;;;;;;5029612;28;20207;-67
2023/07/23 07:33:47;;;;;;;2.80;2.60;;;23.50;81.20;;;;;;5029730;28;20188;-67
2023/07/23 07:36:12;;;;;;;2.03;1.87;;;23.50;80.30;;;;;;5029592;28;20612;-67
2023/07/23 07:38:38;;;;;;;2.97;2.43;;;23.50;81.80;;;;;;5029794;28;20231;-67
2023/07/23 07:41:04;;;;;;;3.10;2.30;;;23.50;83.90;;;;;;5029504;28;20222;-67
2023/07/23 07:43:29;;;;;;;2.93;2.60;;;23.60;82.70;;;;;;5029041;28;20613;-67
2023/07/23 07:46:03;;;;;;;2.47;2.03;;;23.60;83.90;;;;;;5026720;28;20186;-67
2023/07/23 07:48:29;;;;;;;1.97;1.87;;;23.70;81.40;;;;;;5027064;28;20310;-67
2023/07/23 07:51:03;;;;;;;3.40;2.40;;;23.80;80.10;;;;;;5027043;28;20573;-68
2023/07/23 07:53:30;;;;;;;4.10;2.50;;;23.90;80.00;;;;;;5027024;28;20491;-67
2023/07/23 07:55:57;;;;;;;6.20;2.50;;;23.90;78.50;;;;;;5027065;28;20978;-68
2023/07/23 07:58:26;;;;;;;4.77;2.73;;;23.80;76.60;;;;;;5027054;28;20426;-67
2023/07/23 08:00:55;;;;;;;3.93;2.10;;;23.80;76.80;;;;;;5026758;28;20450;-67
2023/07/23 08:03:26;;;;;;;2.73;2.13;;;23.90;75.60;;;;;;5027029;28;20459;-67
2023/07/23 08:05:53;;;;;;;7.70;2.17;;;23.90;78.00;;;;;;5026944;28;20500;-67
2023/07/23 08:08:22;;;;;;;3.67;2.10;;;23.90;79.40;;;;;;5026980;28;20684;-68
2023/07/23 08:10:48;;;;;;;2.80;2.20;;;24.00;77.10;;;;;;5026856;28;20952;-67
2023/07/23 08:13:15;;;;;;;2.20;2.10;;;24.10;77.00;;;;;;5027024;28;20423;-67
2023/07/23 08:15:41;;;;;;;2.10;1.77;;;24.10;79.80;;;;;;5027018;28;20709;-68
2023/07/23 08:18:06;;;;;;;3.17;2.53;;;24.10;78.00;;;;;;5026905;28;20449;-67
2023/07/23 08:20:34;;;;;;;5.03;2.20;;;24.40;78.30;;;;;;5026752;28;20571;-67
2023/07/23 08:23:01;;;;;;;4.50;2.43;;;24.30;75.90;;;;;;5025191;28;20195;-67
2023/07/23 08:25:29;;;;;;;2.70;1.90;;;24.40;75.40;;;;;;5026825;28;20517;-67
2023/07/23 08:28:00;;;;;;;2.33;2.10;;;24.50;77.10;;;;;;5026795;28;20415;-67
2023/07/23 08:30:29;;;;;;;2.60;2.40;;;24.50;77.90;;;;;;5027726;28;20560;-67
2023/07/23 08:32:56;;;;;;;2.70;1.77;;;24.60;78.60;;;;;;5030838;28;20418;-67
2023/07/23 08:35:23;;;;;;;3.43;2.53;;;24.60;76.80;;;;;;5030724;28;21339;-67
2023/07/23 08:37:49;;;;;;;2.07;1.97;;;24.60;76.00;;;;;;5030810;28;20999;-67
2023/07/23 08:40:15;;;;;;;2.23;2.03;;;24.80;77.90;;;;;;5030580;28;20920;-67
2023/07/23 08:42:55;;;;;;;2.67;2.20;;;24.90;75.60;;;;;;5031171;28;21019;-67
2023/07/23 08:45:30;;;;;;;2.17;2.00;;;24.90;78.60;;;;;;5031186;28;20423;-67
2023/07/23 08:48:14;;;;;;;3.40;2.17;;;25.20;76.00;;;;;;5031059;28;20419;-66
2023/07/23 08:50:42;;;;;;;2.40;2.20;;;25.40;75.10;;;;;;5029471;28;20992;-66
2023/07/23 08:53:12;;;;;;;2.53;2.10;;;25.60;79.40;;;;;;5031199;28;20407;-67
2023/07/23 08:55:40;;;;;;;2.63;2.43;;;25.90;75.40;;;;;;5031076;28;20438;-67
2023/07/23 08:58:07;;;;;;;2.90;1.97;;;26.00;77.10;;;;;;5030960;28;20418;-67
2023/07/23 09:00:33;;;;;;;2.23;2.03;;;26.00;73.70;;;;;;5030800;28;20481;-67
2023/07/23 09:03:03;;;;;;;2.53;1.70;;;25.90;74.00;;;;;;5030752;28;20473;-67
2023/07/23 09:05:29;;;;;;;2.67;2.23;;;25.90;74.70;;;;;;5030613;28;20423;-67
2023/07/23 09:07:55;;;;;;;2.83;2.20;;;25.80;78.90;;;;;;5030168;28;20430;-68
2023/07/23 09:10:21;;;;;;;3.13;2.63;;;25.70;74.50;;;;;;5030040;28;21021;-67
2023/07/23 09:12:46;;;;;;;2.33;2.10;;;25.50;79.60;;;;;;5030056;28;20234;-66
2023/07/23 09:15:13;;;;;;;3.37;2.30;;;25.20;77.70;;;;;;5030005;28;20247;-67
2023/07/23 09:17:39;;;;;;;3.93;2.47;;;25.30;74.10;;;;;;5029879;28;20199;-67
2023/07/23 09:20:09;;;;;;;2.80;2.20;;;25.40;75.60;;;;;;5028411;28;20446;-67
2023/07/23 09:22:35;;;;;;;2.77;2.23;;;25.40;73.60;;;;;;5028446;28;20283;-67
2023/07/23 09:25:01;;;;;;;3.17;2.50;;;25.40;80.30;;;;;;5029863;28;20411;-67
2023/07/23 09:27:42;;;;;;;2.50;2.30;;;25.80;80.60;;;;;;5029635;28;20426;-67
2023/07/23 09:30:18;;;;;;;2.50;2.00;;;26.00;76.50;;;;;;5029377;28;20220;-67
2023/07/23 09:32:44;;;;;;;5.00;2.43;;;26.30;78.00;;;;;;5029722;28;20423;-66
2023/07/23 09:35:10;;;;;;;2.70;2.20;;;26.60;77.20;;;;;;5029558;28;20419;-66
2023/07/23 09:37:36;;;;;;;2.37;2.00;;;27.10;74.70;;;;;;5029546;28;20416;-66
2023/07/23 09:40:01;;;;;;;3.07;1.90;;;27.00;72.60;;;;;;5029390;28;20590;-67
2023/07/23 09:42:27;;;;;;;2.37;2.10;;;26.80;71.10;;;;;;5028221;28;20664;-67
2023/07/23 09:44:58;;;;;;;2.00;1.90;;;26.90;73.40;;;;;;5029282;28;20219;-67
2023/07/23 09:47:24;;;;;;;4.70;2.30;;;26.90;74.50;;;;;;5029367;28;20188;-67
2023/07/23 09:49:53;;;;;;;2.10;1.90;;;27.00;71.60;;;;;;5029092;28;20551;-66
2023/07/23 09:52:26;;;;;;;1.90;1.80;;;27.40;72.00;;;;;;5029344;28;20464;-67
2023/07/23 09:54:53;;;;;;;2.03;1.83;;;27.80;69.60;;;;;;5029518;28;20423;-66
2023/07/23 09:57:20;;;;;;;1.80;1.70;;;28.10;72.40;;;;;;5029325;28;20411;-67
2023/07/23 09:59:47;;;;;;;2.10;1.70;;;28.50;68.90;;;;;;5029087;28;20443;-67
2023/07/23 10:02:15;;;;;;;2.17;1.80;;;28.50;67.00;;;;;;5029116;28;20922;-67
2023/07/23 10:04:41;;;;;;;11.03;2.10;;;28.60;67.70;;;;;;5029064;28;20427;-68
2023/07/23 10:07:07;;;;;;;2.17;1.97;;;28.40;65.80;;;;;;5027812;28;20442;-67
2023/07/23 10:09:33;;;;;;;4.03;2.10;;;28.40;68.40;;;;;;5028794;28;20482;-67
2023/07/23 10:11:58;;;;;;;1.90;1.80;;;28.20;69.10;;;;;;5028975;28;20423;-67
2023/07/23 10:14:24;;;;;;;5.63;2.17;;;27.90;69.10;;;;;;5029050;28;20658;-67
2023/07/23 10:16:53;;;;;;;2.60;2.37;;;27.70;68.60;;;;;;5028759;28;20242;-67
2023/07/23 10:19:20;;;;;;;2.07;1.87;;;27.50;70.70;;;;;;5028640;28;20188;-67
2023/07/23 10:21:49;;;;;;;2.10;1.90;;;27.60;75.40;;;;;;5029026;28;20605;-67
2023/07/23 10:24:15;;;;;;;3.80;1.93;;;27.60;77.20;;;;;;5028749;28;20419;-67
2023/07/23 10:26:43;;;;;;;3.87;1.83;;;27.80;75.60;;;;;;5028498;28;20434;-67
2023/07/23 10:29:11;;;;;;;3.00;1.57;;;28.10;73.40;;;;;;5028386;28;20207;-67
2023/07/23 10:31:38;;;;;;;12.73;2.63;;;28.30;67.20;;;;;;5028476;28;20502;-68
2023/07/23 10:34:27;;;;;;;3.20;2.17;;;28.00;63.50;;;;;;5028630;28;20426;-67
2023/07/23 10:37:17;;;;;;;2.47;2.10;;;28.20;64.30;;;;;;5024820;28;20439;-67
2023/07/23 10:39:45;;;;;;;2.73;2.53;;;28.90;65.10;;;;;;5028206;28;20431;-67
2023/07/23 10:42:37;;;;;;;3.47;2.67;;;29.10;66.80;;;;;;5028265;28;20913;-67
2023/07/23 10:45:12;;;;;;;3.00;2.17;;;29.20;59.50;;;;;;5028228;28;20425;-67
2023/07/23 10:47:38;;;;;;;4.53;2.60;;;29.30;60.20;;;;;;5028246;28;20419;-67
2023/07/23 10:50:11;;;;;;;9.00;3.67;;;29.00;58.60;;;;;;5028241;28;21020;-67
2023/07/23 10:52:37;;;;;;;3.40;3.03;;;28.80;56.70;;;;;;5028725;28;20443;-67
2023/07/23 10:55:04;;;;;;;3.77;2.80;;;28.90;57.80;;;;;;5026906;28;21007;-67
2023/07/23 10:57:30;;;;;;;6.67;3.57;;;28.70;57.80;;;;;;5029719;28;20193;-67
2023/07/23 10:59:56;;;;;;;3.77;3.17;;;28.90;58.80;;;;;;5028650;28;20431;-66
2023/07/23 11:02:26;;;;;;;4.97;3.37;;;28.80;55.50;;;;;;5028575;28;20426;-67
2023/07/23 11:04:55;;;;;;;4.07;3.67;;;28.80;57.20;;;;;;5028647;28;20196;-67
2023/07/23 11:07:28;;;;;;;9.50;4.20;;;29.10;59.40;;;;;;5028637;28;20432;-67
2023/07/23 11:10:16;;;;;;;9.63;4.17;;;29.10;60.90;;;;;;5028319;28;20482;-66
2023/07/23 11:12:42;;;;;;;4.53;3.73;;;29.20;57.80;;;;;;5028706;28;20791;-67
2023/07/23 11:15:15;;;;;;;10.20;3.53;;;28.90;54.80;;;;;;5028476;28;20423;-67
2023/07/23 11:17:40;;;;;;;5.87;4.00;;;29.20;55.80;;;;;;5028524;28;20429;-67
2023/07/23 11:20:07;;;;;;;5.63;3.53;;;29.20;56.60;;;;;;5028391;28;20447;-66
2023/07/23 11:22:32;;;;;;;6.23;3.80;;;29.40;54.40;;;;;;5028257;28;20220;-67
2023/07/23 11:24:58;;;;;;;4.77;3.97;;;29.70;55.50;;;;;;5028365;28;20466;-67
2023/07/23 11:27:24;;;;;;;4.83;3.90;;;29.80;52.40;;;;;;5028250;28;20202;-67
2023/07/23 11:29:49;;;;;;;3.73;3.17;;;29.90;53.90;;;;;;5028156;28;20294;-67
2023/07/23 11:32:15;;;;;;;3.70;3.33;;;29.90;52.40;;;;;;5028261;28;20198;-67
2023/07/23 11:34:41;;;;;;;4.07;3.40;;;30.10;53.40;;;;;;5028047;28;20655;-67
2023/07/23 11:37:10;;;;;;;3.40;2.90;;;30.50;52.20;;;;;;5028103;28;20190;-67
2023/07/23 11:39:35;;;;;;;4.30;2.70;;;30.70;52.10;;;;;;5027961;28;20208;-66
2023/07/23 11:42:01;;;;;;;9.27;3.30;;;30.90;52.80;;;;;;5027952;28;20496;-66
2023/07/23 11:44:26;;;;;;;3.33;2.97;;;30.90;55.60;;;;;;5028087;28;20192;-67
2023/07/23 11:47:01;;;;;;;4.50;3.20;;;31.00;55.40;;;;;;5027830;28;20239;-67
2023/07/23 11:49:27;;;;;;;4.27;3.03;;;31.20;54.40;;;;;;5027578;28;20748;-67
2023/07/23 11:51:57;;;;;;;3.50;2.87;;;31.10;54.00;;;;;;5027661;28;20419;-67
2023/07/23 11:54:22;;;;;;;2.70;2.50;;;30.90;52.10;;;;;;5027847;28;20180;-67
2023/07/23 11:56:48;;;;;;;2.93;2.70;;;30.80;54.50;;;;;;5027667;28;20422;-68
2023/07/23 11:59:16;;;;;;;4.13;3.30;;;31.00;53.80;;;;;;5027659;28;20198;-68
2023/07/23 12:01:42;;;;;;;2.83;2.63;;;31.00;49.70;;;;;;5027681;28;20184;-67
2023/07/23 12:04:08;;;;;;;3.50;3.20;;;31.40;49.30;;;;;;5027531;28;20842;-67
2023/07/23 12:06:37;;;;;;;3.70;3.00;;;31.30;50.60;;;;;;5025700;28;20967;-68
2023/07/23 12:09:12;;;;;;;2.87;2.67;;;31.40;50.60;;;;;;5027721;28;20467;-68
2023/07/23 12:11:40;;;;;;;5.00;2.90;;;31.40;51.10;;;;;;5027776;28;21034;-67
2023/07/23 12:14:07;;;;;;;4.20;3.10;;;31.10;51.80;;;;;;5027915;28;21231;-67
2023/07/23 12:16:41;;;;;;;7.33;2.97;;;31.10;50.30;;;;;;5028227;28;20419;-67
2023/07/23 12:19:15;;;;;;;3.77;3.47;;;31.10;52.80;;;;;;5027726;28;20942;-68
2023/07/23 12:21:42;;;;;;;3.23;2.93;;;30.80;48.80;;;;;;5027898;28;20485;-67
2023/07/23 12:24:22;;;;;;;3.83;2.83;;;30.50;49.60;;;;;;5028100;28;20450;-67
2023/07/23 12:26:56;;;;;;;5.73;2.80;;;30.10;49.10;;;;;;5026479;28;20427;-67
2023/07/23 12:29:23;;;;;;;2.47;2.20;;;29.90;53.60;;;;;;5027546;28;20470;-68
2023/07/23 12:32:13;;;;;;;3.53;3.20;;;29.70;54.20;;;;;;5027725;28;20473;-68
2023/07/23 12:34:44;;;;;;;2.73;2.47;;;29.80;54.10;;;;;;5027618;28;20415;-67
2023/07/23 12:37:10;;;;;;;3.73;3.43;;;29.80;51.20;;;;;;5027523;28;20883;-67
2023/07/23 12:39:36;;;;;;;3.43;3.07;;;29.80;52.50;;;;;;5027345;28;20449;-68
2023/07/23 12:42:02;;;;;;;3.97;2.90;;;29.80;52.90;;;;;;5026828;28;20419;-67
2023/07/23 12:44:29;;;;;;;5.23;3.17;;;29.60;52.20;;;;;;5026708;28;20215;-68
2023/07/23 12:46:55;;;;;;;3.27;2.80;;;29.20;52.00;;;;;;5025108;28;20254;-68